Weather at Rolling Plains Memorial Hospital Heliport

Public forecast

Using degrees Fahrenheit for public forecast. Weather courtesy of forecast.io.

Closest aviation weather report (METAR) to Rolling Plains Memorial Hospital Heliport

Closest report is Avenger Field, 3.7 nm (6.8 km) WNW. Retrieved 2021/07/28 01:15 UTC (11 minutes ago):

KSWW 280115Z AUTO 09004KT 10SM CLR 34/14 A3005 RMK AO2 T03350135

Closest aviation forecast (TAF) to Rolling Plains Memorial Hospital Heliport

Closest forecast is Dyess Air Force Base, 27.6 nm (51.0 km) E. Retrieved 2021/07/27 22:42 UTC (3 hours ago):

TAF KDYS 272235Z 2722/2902 VRB06KT 9999 SCT150 QNH2994INS BECMG 2723/2724 VRB06KT 9999 BKN100 QNH2993INS BECMG 2818/2819 14006KT 9999 VCTS BKN080CB QNH2999INS BECMG 2821/2822 10006KT 9000 -TSRA SCT100 BKN200CB QNH2994INS BECMG 2822/2823 10006KT 9999 NSW SCT090 QNH2991INS TX38/2820Z TN25/2812Z